Mosheim, Texas
Current Conditions -  °F | °C
As of 10:35 PM on Friday 24 Oct 2014 (Local Time) from KPWG Reporting Station
Clear Clear  
Wind Chill: 68°   Ceiling: Unl
Heat Index: 68°   Visibility: 10mi
Dew Point: 55°   Wind: 8mph
Humidity: 64%   Direction: 180°S
Pressure: 30.14"   Gusts: NA
Location:  31.6825°N, 97.53°W
Report Text: KPWG 250335Z AUTO 18007KT 10SM CLR 20/13 A3014 RMK AO1
Loading
Personal Weather Stations






























Interactive Weather Map
Tropical Storm Tracking
New forecast layout! Learn more

10-Day Weather Forecast

Advertisements
Track Severe Weather on mobile